createdAt,value
2023-02-06T00:02:06.316Z,104017.63
2023-02-06T00:04:38.876Z,104025.09
2023-02-06T00:07:11.429Z,104027.72
2023-02-06T00:09:43.894Z,104031.91
2023-02-06T00:12:16.493Z,104032.63
2023-02-06T00:14:48.967Z,104042.16
2023-02-06T00:17:21.508Z,104034.38
2023-02-06T00:19:53.974Z,104041.75
2023-02-06T00:22:26.507Z,104028.47
2023-02-06T00:24:59.328Z,104019.41
2023-02-06T00:27:32.119Z,104018.59
2023-02-06T00:30:05.317Z,104025.13
2023-02-06T00:32:38.183Z,104019.72
2023-02-06T00:35:10.716Z,104015.38
2023-02-06T00:37:43.163Z,104009.34
2023-02-06T00:40:15.762Z,104007.00
2023-02-06T00:42:48.318Z,104004.91
2023-02-06T00:45:20.936Z,104007.25
2023-02-06T00:47:53.477Z,104004.13
2023-02-06T00:50:26.047Z,104008.81
2023-02-06T00:52:58.549Z,104002.19
2023-02-06T00:55:31.040Z,104001.31
2023-02-06T00:58:03.567Z,104006.56
2023-02-06T01:00:36.203Z,104011.91
2023-02-06T01:03:08.955Z,104005.88
2023-02-06T01:05:41.475Z,104011.50
2023-02-06T01:08:14.524Z,104019.56
2023-02-06T01:10:47.039Z,104015.13
2023-02-06T01:13:19.776Z,104008.69
2023-02-06T01:15:52.527Z,104026.97
2023-02-06T01:18:25.095Z,104024.78
2023-02-06T01:20:57.559Z,104031.19
2023-02-06T01:23:30.044Z,104029.75
2023-02-06T01:26:10.184Z,104029.97
2023-02-06T01:28:45.692Z,104036.25
2023-02-06T01:31:26.631Z,104032.63
2023-02-06T01:34:00.612Z,104022.78
2023-02-06T01:36:33.134Z,104023.38
2023-02-06T01:39:07.774Z,104026.56
2023-02-06T01:41:40.341Z,104033.47
2023-02-06T01:44:23.568Z,104030.03
2023-02-06T01:46:58.339Z,104029.88
2023-02-06T01:49:36.061Z,104039.03
2023-02-06T01:52:26.803Z,104035.41
2023-02-06T01:55:04.675Z,104044.13
2023-02-06T01:57:39.097Z,104040.06
2023-02-06T02:00:12.512Z,104039.09
2023-02-06T02:02:49.063Z,104031.00
2023-02-06T02:05:21.760Z,104037.19
2023-02-06T02:08:02.076Z,104039.31
2023-02-06T02:10:35.129Z,104026.22
2023-02-06T02:13:07.732Z,104031.69
2023-02-06T02:16:23.096Z,104032.09
2023-02-06T02:19:51.894Z,104023.06
2023-02-06T02:22:36.014Z,104021.94
2023-02-06T02:25:42.337Z,104018.66
2023-02-06T02:28:55.266Z,104022.16
2023-02-06T02:32:43.899Z,104010.09
2023-02-06T02:35:36.137Z,104003.75
2023-02-06T02:38:50.272Z,104003.94
2023-02-06T02:41:53.887Z,104000.75
2023-02-06T02:44:43.608Z,104005.03
2023-02-06T02:47:21.411Z,104002.25
2023-02-06T02:49:54.841Z,104003.25
2023-02-06T02:52:28.964Z,103997.44
2023-02-06T02:55:01.447Z,103994.13
2023-02-06T02:57:34.129Z,103995.41
2023-02-06T03:00:08.635Z,103997.03
2023-02-06T03:02:42.910Z,103998.75
2023-02-06T03:05:20.746Z,103994.81
2023-02-06T03:08:26.659Z,103989.59
2023-02-06T03:11:12.879Z,103982.63
2023-02-06T03:14:05.936Z,103980.94
2023-02-06T03:16:47.769Z,103977.03
2023-02-06T03:19:32.125Z,103975.00
2023-02-06T03:22:05.659Z,103984.84
2023-02-06T03:24:39.754Z,103975.72
2023-02-06T03:27:17.433Z,103983.03
2023-02-06T03:29:54.236Z,103982.75
2023-02-06T03:32:34.156Z,103983.63
2023-02-06T03:35:30.935Z,103976.13
2023-02-06T03:38:07.625Z,103976.41
2023-02-06T03:40:47.300Z,103968.97
2023-02-06T03:43:24.680Z,103972.59
2023-02-06T03:46:04.494Z,103963.13
2023-02-06T03:48:44.292Z,103972.59
2023-02-06T03:51:27.768Z,103972.50
2023-02-06T03:54:05.480Z,103975.00
2023-02-06T03:56:52.573Z,103972.09
2023-02-06T03:59:25.312Z,103966.97
2023-02-06T04:02:03.424Z,103963.03
2023-02-06T04:04:42.343Z,103966.06
2023-02-06T04:07:25.351Z,103975.63
2023-02-06T04:09:57.880Z,103970.38
2023-02-06T04:12:30.471Z,103981.34
2023-02-06T04:15:03.290Z,103980.53
2023-02-06T04:17:53.597Z,103981.13
2023-02-06T04:20:30.203Z,103979.53
2023-02-06T04:23:02.680Z,103980.41
2023-02-06T04:25:35.837Z,103982.72
2023-02-06T04:28:08.777Z,103976.50
2023-02-06T04:30:41.523Z,103969.84
2023-02-06T04:33:14.068Z,103964.41
2023-02-06T04:35:48.848Z,103963.09
2023-02-06T04:38:21.420Z,103962.97
2023-02-06T04:40:54.018Z,103968.81
2023-02-06T04:43:26.623Z,103960.78
2023-02-06T04:45:59.374Z,103957.97
2023-02-06T04:48:31.875Z,103961.06
2023-02-06T04:51:04.956Z,103941.34
2023-02-06T04:53:37.501Z,103945.66
2023-02-06T04:56:12.797Z,103956.81
2023-02-06T04:58:45.316Z,103966.97
2023-02-06T05:01:18.178Z,103962.66
2023-02-06T05:03:50.952Z,103970.31
2023-02-06T05:06:23.601Z,103973.72
2023-02-06T05:08:56.194Z,103973.41
2023-02-06T05:11:28.719Z,103977.63
2023-02-06T05:14:01.220Z,103980.31
2023-02-06T05:16:33.744Z,103983.63
2023-02-06T05:19:06.323Z,103975.81
2023-02-06T05:21:38.960Z,103958.53
2023-02-06T05:24:11.975Z,103967.38
2023-02-06T05:26:46.456Z,103983.16
2023-02-06T05:29:18.995Z,103976.91
2023-02-06T05:31:52.109Z,103978.84
2023-02-06T05:34:24.794Z,103992.19
2023-02-06T05:36:57.419Z,103998.34
2023-02-06T05:39:29.955Z,103981.25
2023-02-06T05:42:02.559Z,103988.56
2023-02-06T05:44:35.103Z,103985.97
2023-02-06T05:47:07.663Z,103988.38
2023-02-06T05:49:40.194Z,104000.59
2023-02-06T05:52:12.704Z,104008.22
2023-02-06T05:54:45.187Z,104012.63
2023-02-06T05:57:17.699Z,104013.78
2023-02-06T05:59:50.196Z,104010.44
2023-02-06T06:02:22.824Z,104014.88
2023-02-06T06:04:55.358Z,104016.34
2023-02-06T06:07:27.843Z,104013.84
2023-02-06T06:10:00.399Z,104010.59
2023-02-06T06:12:33.050Z,104009.38
2023-02-06T06:15:06.336Z,104003.25
2023-02-06T06:17:38.974Z,104007.56
2023-02-06T06:20:11.870Z,104016.34
2023-02-06T06:22:44.393Z,104019.66
2023-02-06T06:25:17.053Z,104015.13
2023-02-06T06:27:49.663Z,104014.63
2023-02-06T06:30:22.211Z,104014.94
2023-02-06T06:32:54.768Z,104018.84
2023-02-06T06:35:27.366Z,104029.63
2023-02-06T06:38:00.000Z,104030.00
2023-02-06T06:40:32.459Z,104016.97
2023-02-06T06:43:04.933Z,104017.94
2023-02-06T06:45:37.769Z,104011.00
2023-02-06T06:48:10.504Z,104009.69
2023-02-06T06:50:43.224Z,104008.88
2023-02-06T06:53:16.436Z,104017.16
2023-02-06T06:55:49.057Z,104016.13
2023-02-06T06:58:21.646Z,104009.09
2023-02-06T07:00:54.179Z,103998.94
2023-02-06T07:03:26.758Z,104001.50
2023-02-06T07:05:59.265Z,103986.38
2023-02-06T07:08:32.223Z,103986.00
2023-02-06T07:11:04.949Z,103989.63
2023-02-06T07:13:37.923Z,103978.25
2023-02-06T07:16:12.114Z,103984.25
2023-02-06T07:18:44.693Z,103974.97
2023-02-06T07:21:19.716Z,103970.19
2023-02-06T07:23:52.233Z,103976.09
2023-02-06T07:26:24.711Z,103967.31
2023-02-06T07:28:57.263Z,103974.38
2023-02-06T07:31:29.808Z,103966.28
2023-02-06T07:34:02.405Z,103971.97
2023-02-06T07:36:35.626Z,103960.31
2023-02-06T07:39:08.522Z,103956.16
2023-02-06T07:41:41.346Z,103956.16
2023-02-06T07:44:14.640Z,103957.09
2023-02-06T07:46:47.741Z,103957.41
2023-02-06T07:49:20.387Z,103950.69
2023-02-06T07:51:52.972Z,103950.78
2023-02-06T07:54:25.468Z,103950.97
2023-02-06T07:56:58.083Z,103953.78
2023-02-06T07:59:30.595Z,103949.47
2023-02-06T08:02:03.205Z,103947.97
2023-02-06T08:04:36.068Z,103940.16
2023-02-06T08:07:11.158Z,103932.19
2023-02-06T08:09:44.009Z,103928.75
2023-02-06T08:12:16.572Z,103930.78
2023-02-06T08:14:49.184Z,103935.09
2023-02-06T08:17:21.918Z,103922.06
2023-02-06T08:19:54.518Z,103926.44
2023-02-06T08:22:29.532Z,103932.91
2023-02-06T08:25:02.018Z,103932.50
2023-02-06T08:27:34.589Z,103927.31
2023-02-06T08:30:08.210Z,103928.34
2023-02-06T08:32:40.719Z,103937.63
2023-02-06T08:35:13.392Z,103931.16
2023-02-06T08:37:45.887Z,103936.66
2023-02-06T08:40:18.888Z,103942.81
2023-02-06T08:42:52.022Z,103935.16
2023-02-06T08:45:24.533Z,103936.66
2023-02-06T08:47:57.081Z,103934.31
2023-02-06T08:50:29.590Z,103933.09
2023-02-06T08:53:03.068Z,103931.28
2023-02-06T08:55:35.777Z,103929.06
2023-02-06T08:58:08.363Z,103917.94
2023-02-06T09:00:40.914Z,103915.78
2023-02-06T09:03:14.041Z,103909.00
2023-02-06T09:05:46.817Z,103905.66
2023-02-06T09:08:19.369Z,103901.69
2023-02-06T09:10:51.894Z,103896.38
2023-02-06T09:13:25.723Z,103884.78
2023-02-06T09:15:58.536Z,103889.19
2023-02-06T09:18:31.384Z,103892.03
2023-02-06T09:21:17.693Z,103892.19
2023-02-06T09:23:59.867Z,103891.91
2023-02-06T09:26:53.454Z,103894.81
2023-02-06T09:29:31.857Z,103898.19
2023-02-06T09:32:04.874Z,103888.75
2023-02-06T09:34:37.363Z,103883.78
2023-02-06T09:37:09.847Z,103889.63
2023-02-06T09:39:42.340Z,103885.53
2023-02-06T09:42:30.143Z,103884.72
2023-02-06T09:45:19.392Z,103899.31
2023-02-06T09:48:20.377Z,103902.69
2023-02-06T09:51:16.585Z,103908.66
2023-02-06T09:54:45.778Z,103908.03
2023-02-06T09:57:46.248Z,103903.34
2023-02-06T10:00:50.328Z,103902.19
2023-02-06T10:04:00.625Z,103901.84
2023-02-06T10:06:45.203Z,103907.75
2023-02-06T10:09:29.403Z,103922.09
2023-02-06T10:12:13.528Z,103915.88
2023-02-06T10:14:58.897Z,103919.44
2023-02-06T10:17:41.859Z,103924.16
2023-02-06T10:20:39.540Z,103914.66
2023-02-06T10:23:27.022Z,103921.03
2023-02-06T10:26:18.099Z,103925.69
2023-02-06T10:28:56.941Z,103919.75
2023-02-06T10:32:00.306Z,103920.59
2023-02-06T10:35:01.073Z,103923.28
2023-02-06T10:37:51.499Z,103924.97
2023-02-06T10:40:38.011Z,103923.81
2023-02-06T10:43:40.387Z,103921.09
2023-02-06T10:46:35.683Z,103911.66
2023-02-06T10:49:21.893Z,103914.41
2023-02-06T10:52:01.072Z,103918.91
2023-02-06T10:54:42.832Z,103916.50
2023-02-06T10:57:22.004Z,103926.22
2023-02-06T11:00:00.630Z,103919.59
2023-02-06T11:03:06.636Z,103911.19
2023-02-06T11:05:41.451Z,103903.41
2023-02-06T11:08:27.108Z,103905.69
2023-02-06T11:11:24.225Z,103897.00
2023-02-06T11:14:07.644Z,103889.47
2023-02-06T11:16:41.788Z,103894.25
2023-02-06T11:19:40.383Z,103886.34
2023-02-06T11:22:16.716Z,103891.81
2023-02-06T11:25:25.781Z,103892.28
2023-02-06T11:28:01.305Z,103882.06
2023-02-06T11:30:41.039Z,103887.81
2023-02-06T11:33:45.764Z,103886.00
2023-02-06T11:36:29.492Z,103890.03
2023-02-06T11:39:22.083Z,103882.81
2023-02-06T11:42:01.055Z,103881.50
2023-02-06T11:44:43.479Z,103875.03
2023-02-06T11:47:37.686Z,103878.97
2023-02-06T11:50:13.361Z,103873.97
2023-02-06T11:52:47.238Z,103878.41
2023-02-06T11:55:34.507Z,103873.72
2023-02-06T11:58:13.145Z,103876.09
2023-02-06T12:00:51.683Z,103867.94
2023-02-06T12:03:30.924Z,103864.78
2023-02-06T12:06:21.803Z,103872.06
2023-02-06T12:09:02.614Z,103860.84
2023-02-06T12:12:11.255Z,103855.91
2023-02-06T12:14:52.790Z,103850.09
2023-02-06T12:17:38.719Z,103845.22
2023-02-06T12:20:26.884Z,103846.72
2023-02-06T12:23:15.333Z,103839.78
2023-02-06T12:25:55.324Z,103840.09
2023-02-06T12:28:40.792Z,103833.16
2023-02-06T12:31:22.035Z,103822.84
2023-02-06T12:34:20.116Z,103827.59
2023-02-06T12:37:21.727Z,103821.88
2023-02-06T12:39:54.476Z,103820.50
2023-02-06T12:42:43.689Z,103816.28
2023-02-06T12:45:34.950Z,103817.91
2023-02-06T12:48:30.013Z,103823.56
2023-02-06T12:51:23.002Z,103816.09
2023-02-06T12:54:03.872Z,103808.59
2023-02-06T12:56:57.278Z,103801.00
2023-02-06T13:00:02.668Z,103799.28
2023-02-06T13:03:41.294Z,103800.47
2023-02-06T13:06:21.378Z,103790.97
2023-02-06T13:09:06.337Z,103787.22
2023-02-06T13:11:40.862Z,103790.00
2023-02-06T13:14:27.129Z,103778.75
2023-02-06T13:17:11.687Z,103783.75
2023-02-06T13:19:44.566Z,103775.38
2023-02-06T13:22:18.918Z,103769.09
2023-02-06T13:24:51.986Z,103764.59
2023-02-06T13:27:37.627Z,103751.56
2023-02-06T13:30:23.757Z,103750.28
2023-02-06T13:33:24.617Z,103757.84
2023-02-06T13:36:15.917Z,103749.28
2023-02-06T13:38:48.504Z,103742.47
2023-02-06T13:41:37.112Z,103745.59
2023-02-06T13:44:27.903Z,103744.84
2023-02-06T13:47:46.230Z,103741.16
2023-02-06T13:50:21.428Z,103734.41
2023-02-06T13:53:29.349Z,103741.66
2023-02-06T13:56:26.756Z,103741.34
2023-02-06T13:59:05.971Z,103750.59
2023-02-06T14:01:40.149Z,103751.00
2023-02-06T14:04:25.157Z,103749.28
2023-02-06T14:07:39.455Z,103753.16
2023-02-06T14:10:45.544Z,103739.66
2023-02-06T14:13:39.200Z,103742.19
2023-02-06T14:16:33.821Z,103745.03
2023-02-06T14:19:11.815Z,103746.56
2023-02-06T14:22:04.437Z,103735.59
2023-02-06T14:25:31.320Z,103742.91
2023-02-06T14:28:16.079Z,103736.16
2023-02-06T14:31:23.254Z,103734.84
2023-02-06T14:34:23.527Z,103744.25
2023-02-06T14:37:42.792Z,103746.19
2023-02-06T14:40:29.403Z,103751.09
2023-02-06T14:43:13.414Z,103754.78
2023-02-06T14:46:06.010Z,103763.34
2023-02-06T14:48:52.699Z,103760.44
2023-02-06T14:51:39.008Z,103751.84
2023-02-06T14:54:29.137Z,103756.84
2023-02-06T14:57:05.903Z,103766.13
2023-02-06T14:59:38.388Z,103773.75
2023-02-06T15:02:26.292Z,103773.75
2023-02-06T15:05:02.107Z,103762.88
2023-02-06T15:07:38.630Z,103764.06
2023-02-06T15:10:18.217Z,103764.28
2023-02-06T15:12:53.545Z,103764.47
2023-02-06T15:15:29.911Z,103764.19
2023-02-06T15:18:06.477Z,103751.97
2023-02-06T15:20:44.113Z,103754.97
2023-02-06T15:23:59.503Z,103750.03
2023-02-06T15:26:53.180Z,103752.34
2023-02-06T15:29:27.030Z,103750.84
2023-02-06T15:32:25.160Z,103757.47
2023-02-06T15:34:59.539Z,103759.78
2023-02-06T15:37:35.697Z,103753.63
2023-02-06T15:40:42.209Z,103758.09
2023-02-06T15:43:22.154Z,103762.13
2023-02-06T15:45:58.904Z,103768.91
2023-02-06T15:48:43.600Z,103749.69
2023-02-06T15:51:29.989Z,103756.00
2023-02-06T15:54:22.564Z,103756.44
2023-02-06T15:57:20.826Z,103750.47
2023-02-06T15:59:56.621Z,103742.84
2023-02-06T16:02:39.600Z,103735.72
2023-02-06T16:05:42.230Z,103734.75
2023-02-06T16:08:27.498Z,103737.06
2023-02-06T16:11:27.616Z,103731.47
2023-02-06T16:14:01.924Z,103736.25
2023-02-06T16:16:34.472Z,103739.28
2023-02-06T16:19:29.734Z,103743.31
2023-02-06T16:22:19.695Z,103747.13
2023-02-06T16:25:11.448Z,103739.81
2023-02-06T16:27:46.147Z,103742.94
2023-02-06T16:30:33.467Z,103742.94
2023-02-06T16:33:25.382Z,103742.28
2023-02-06T16:35:57.928Z,103753.47
2023-02-06T16:38:30.551Z,103752.66
2023-02-06T16:41:03.319Z,103752.00
2023-02-06T16:43:35.944Z,103756.84
2023-02-06T16:46:08.553Z,103755.06
2023-02-06T16:48:41.186Z,103758.50
2023-02-06T16:51:21.193Z,103758.31
2023-02-06T16:53:54.010Z,103739.25
2023-02-06T16:56:26.748Z,103748.94
2023-02-06T16:58:59.215Z,103738.47
2023-02-06T17:01:32.371Z,103736.16
2023-02-06T17:04:05.112Z,103743.84
2023-02-06T17:06:38.177Z,103741.00
2023-02-06T17:09:16.233Z,103745.03
2023-02-06T17:11:48.732Z,103750.59
2023-02-06T17:14:21.332Z,103754.97
2023-02-06T17:16:55.689Z,103753.97
2023-02-06T17:19:28.272Z,103759.09
2023-02-06T17:22:00.839Z,103756.84
2023-02-06T17:27:30.738Z,103765.63
2023-02-06T17:30:03.650Z,103764.25
2023-02-06T17:32:36.281Z,103767.16
2023-02-06T17:35:09.341Z,103760.72
2023-02-06T17:37:41.926Z,103771.13
2023-02-06T17:40:24.172Z,103774.34
2023-02-06T17:42:59.085Z,103772.41
2023-02-06T17:45:32.007Z,103775.84
2023-02-06T17:48:05.882Z,103773.16
2023-02-06T17:50:41.221Z,103775.84
2023-02-06T17:53:14.708Z,103772.34
2023-02-06T17:55:47.552Z,103770.53
2023-02-06T17:58:20.619Z,103753.00
2023-02-06T18:00:53.075Z,103754.69
2023-02-06T18:03:25.830Z,103753.59
2023-02-06T18:06:02.497Z,103755.88
2023-02-06T18:08:35.347Z,103752.84
2023-02-06T18:11:18.167Z,103752.34
2023-02-06T18:13:50.948Z,103746.75
2023-02-06T18:16:28.548Z,103751.41
2023-02-06T18:19:01.181Z,103755.16
2023-02-06T18:21:33.743Z,103753.91
2023-02-06T18:24:07.354Z,103746.53
2023-02-06T18:26:39.848Z,103756.53
2023-02-06T18:29:12.881Z,103749.81
2023-02-06T18:31:45.759Z,103745.84
2023-02-06T18:34:20.481Z,103738.31
2023-02-06T18:36:53.151Z,103723.75
2023-02-06T18:39:25.786Z,103728.47
2023-02-06T18:42:16.909Z,103729.72
2023-02-06T18:44:49.495Z,103730.03
2023-02-06T18:47:22.089Z,103725.56
2023-02-06T18:49:54.735Z,103729.72
2023-02-06T18:52:27.318Z,103728.50
2023-02-06T18:54:59.964Z,103726.38
2023-02-06T18:57:32.462Z,103712.63
2023-02-06T19:00:07.167Z,103718.25
2023-02-06T19:02:40.199Z,103718.66
2023-02-06T19:05:13.598Z,103719.28
2023-02-06T19:07:53.538Z,103714.63
2023-02-06T19:10:26.091Z,103721.34
2023-02-06T19:12:58.596Z,103712.88
2023-02-06T19:15:34.217Z,103712.66
2023-02-06T19:18:07.762Z,103709.69
2023-02-06T19:20:41.881Z,103702.03
2023-02-06T19:23:14.359Z,103700.16
2023-02-06T19:25:46.843Z,103700.69
2023-02-06T19:28:19.359Z,103702.25
2023-02-06T19:30:52.061Z,103706.44
2023-02-06T19:33:24.618Z,103704.44
2023-02-06T19:35:57.138Z,103707.69
2023-02-06T19:38:29.654Z,103706.59
2023-02-06T19:41:12.998Z,103712.41
2023-02-06T19:43:46.137Z,103714.75
2023-02-06T19:46:23.188Z,103716.28
2023-02-06T19:48:56.331Z,103708.09
2023-02-06T19:51:35.588Z,103707.00
2023-02-06T19:54:08.570Z,103711.16
2023-02-06T19:56:47.544Z,103704.75
2023-02-06T19:59:24.805Z,103702.69
2023-02-06T20:02:01.595Z,103706.28
2023-02-06T20:04:36.277Z,103707.09
2023-02-06T20:07:09.124Z,103715.56
2023-02-06T20:09:42.634Z,103710.97
2023-02-06T20:12:15.262Z,103711.59
2023-02-06T20:14:47.899Z,103710.50
2023-02-06T20:17:20.588Z,103717.09
2023-02-06T20:19:53.819Z,103732.22
2023-02-06T20:22:26.761Z,103729.41
2023-02-06T20:24:59.496Z,103733.75
2023-02-06T20:27:32.163Z,103730.75
2023-02-06T20:30:05.464Z,103729.75
2023-02-06T20:32:38.158Z,103730.09
2023-02-06T20:35:10.997Z,103731.91
2023-02-06T20:37:43.882Z,103721.44
2023-02-06T20:40:16.687Z,103715.91
2023-02-06T20:42:49.429Z,103724.19
2023-02-06T20:45:21.990Z,103724.63
2023-02-06T20:47:54.593Z,103721.88
2023-02-06T20:50:29.597Z,103726.16
2023-02-06T20:53:02.685Z,103721.41
2023-02-06T20:55:38.994Z,103721.22
2023-02-06T20:58:11.696Z,103729.78
2023-02-06T21:00:44.383Z,103729.56
2023-02-06T21:03:17.529Z,103723.16
2023-02-06T21:05:59.148Z,103720.34
2023-02-06T21:08:31.762Z,103725.38
2023-02-06T21:11:04.974Z,103726.09
2023-02-06T21:13:40.679Z,103726.00
2023-02-06T21:16:13.755Z,103732.03
2023-02-06T21:18:46.322Z,103725.81
2023-02-06T21:21:19.823Z,103732.84
2023-02-06T21:23:55.856Z,103734.63
2023-02-06T21:26:29.886Z,103735.53
2023-02-06T21:29:04.120Z,103730.22
2023-02-06T21:31:38.788Z,103723.28
2023-02-06T21:34:19.135Z,103723.19
2023-02-06T21:36:53.281Z,103717.06
2023-02-06T21:39:27.168Z,103716.16
2023-02-06T21:42:01.557Z,103708.34
2023-02-06T21:44:34.460Z,103703.69
2023-02-06T21:47:09.721Z,103699.56
2023-02-06T21:49:42.310Z,103698.75
2023-02-06T21:52:14.874Z,103696.56
2023-02-06T21:54:47.514Z,103688.06
2023-02-06T21:57:20.131Z,103675.94
2023-02-06T21:59:52.760Z,103677.53
2023-02-06T22:02:25.342Z,103675.66
2023-02-06T22:04:59.632Z,103680.03
2023-02-06T22:07:38.001Z,103674.72
2023-02-06T22:10:11.091Z,103678.97
2023-02-06T22:12:48.780Z,103676.06
2023-02-06T22:15:21.677Z,103671.25
2023-02-06T22:17:54.298Z,103671.19
2023-02-06T22:20:27.334Z,103681.41
2023-02-06T22:22:59.951Z,103674.88
2023-02-06T22:25:32.522Z,103679.41
2023-02-06T22:28:05.111Z,103673.00
2023-02-06T22:30:39.465Z,103678.94
2023-02-06T22:33:13.389Z,103684.75
2023-02-06T22:35:46.001Z,103687.06
2023-02-06T22:38:18.554Z,103678.13
2023-02-06T22:41:03.522Z,103685.56
2023-02-06T22:43:38.624Z,103690.50
2023-02-06T22:46:30.601Z,103686.88
2023-02-06T22:49:06.900Z,103691.22
2023-02-06T22:51:41.313Z,103684.19
2023-02-06T22:54:14.557Z,103691.00
2023-02-06T22:56:47.326Z,103683.97
2023-02-06T22:59:25.441Z,103689.00
2023-02-06T23:01:59.132Z,103683.66
2023-02-06T23:04:36.225Z,103687.88
2023-02-06T23:07:08.844Z,103684.38
2023-02-06T23:09:41.619Z,103688.59
2023-02-06T23:12:16.141Z,103684.97
2023-02-06T23:14:48.714Z,103673.53
2023-02-06T23:17:21.403Z,103674.34
2023-02-06T23:19:54.144Z,103683.09
2023-02-06T23:22:26.740Z,103680.47
2023-02-06T23:24:59.324Z,103678.16
2023-02-06T23:27:31.926Z,103686.91
2023-02-06T23:30:05.777Z,103684.88
2023-02-06T23:32:38.293Z,103679.47
2023-02-06T23:35:11.272Z,103687.69
2023-02-06T23:37:44.070Z,103686.38
2023-02-06T23:40:18.049Z,103690.59
2023-02-06T23:42:50.573Z,103692.56
2023-02-06T23:45:23.340Z,103692.69
2023-02-06T23:47:56.429Z,103699.38
2023-02-06T23:50:29.249Z,103695.75
2023-02-06T23:53:01.807Z,103703.38
2023-02-06T23:55:34.420Z,103694.47
2023-02-06T23:58:07.012Z,103699.47
